Palatine Bridge, New York
Current Conditions -  °F | °C
As of 3:15 PM on Thursday 23 Oct 2014 (Local Time) from KNY0 Reporting Station
Overcast Overcast  
Wind Chill: 45°   Ceiling: 1800
Heat Index: 48°   Visibility: 10mi
Dew Point: 45°   Wind: 7mph
Humidity: 88%   Direction: 350°N
Pressure: 29.83"   Gusts: NA
Location:  42.91°N, 74.57°W
Report Text: KNY0 231915Z AUTO 35006KT 10SM OVC018 09/07 A2983 RMK AO2 T00900071
Loading
Personal Weather Stations






























Interactive Weather Map New forecast layout! Learn more

10-Day Weather Forecast

Advertisements
Track Severe Weather on mobile